Detroit, Michigan
Traffic Map
Current Weather Conditions
Detroit, Michigan
Broken Clouds
Broken Clouds
48°
Feels Like: 43°
Wind Chill: 43° Ceiling: 3400
Heat Index: 48° Visibility: 15mi
Dew Point: 37° Wind: 12mph
Humidity: 66% Direction: 340° (NNW)
Pressure: 30.1in Gusts: 18mph
Raw Report DataCYQG 221000Z 34010G16KT 15SM BKN034 09/03 A3010 RMK SC7 SLP193
Traffic Incident Summary
Active as of:
Severity:
Category:
InformationThere was an issue retrieving the traffic information for this location. Please try a different location or try again shortly.
Advertisements
Track Severe Weather on mobile